createdAt,value
2018-06-19T00:02:38.818Z,17.70
2018-06-19T00:07:23.204Z,17.60
2018-06-19T00:12:07.663Z,17.40
2018-06-19T00:16:52.215Z,17.30
2018-06-19T00:21:46.013Z,17.10
2018-06-19T00:26:30.451Z,17.00
2018-06-19T00:31:14.861Z,16.80
2018-06-19T00:36:00.339Z,16.60
2018-06-19T00:40:44.683Z,16.50
2018-06-19T00:45:29.068Z,16.30
2018-06-19T00:50:13.432Z,16.10
2018-06-19T00:54:57.794Z,16.00
2018-06-19T00:59:42.126Z,15.80
2018-06-19T01:04:26.481Z,15.80
2018-06-19T01:09:11.089Z,15.80
2018-06-19T01:13:55.590Z,15.90
2018-06-19T01:18:40.008Z,15.80
2018-06-19T01:23:24.471Z,15.70
2018-06-19T01:28:08.803Z,15.80
2018-06-19T01:32:53.192Z,15.70
2018-06-19T01:37:37.637Z,15.70
2018-06-19T01:42:22.135Z,15.70
2018-06-19T01:47:06.616Z,15.70
2018-06-19T01:51:51.071Z,15.50
2018-06-19T01:56:35.454Z,15.40
2018-06-19T02:01:19.909Z,15.50
2018-06-19T02:06:04.351Z,15.60
2018-06-19T02:10:48.793Z,15.60
2018-06-19T02:15:33.139Z,15.50
2018-06-19T02:20:17.480Z,15.50
2018-06-19T02:25:01.930Z,15.40
2018-06-19T02:29:46.350Z,15.40
2018-06-19T02:34:30.792Z,15.40
2018-06-19T02:39:15.138Z,15.40
2018-06-19T02:43:59.425Z,15.50
2018-06-19T02:48:44.804Z,15.50
2018-06-19T02:53:29.192Z,15.40
2018-06-19T02:58:13.747Z,15.40
2018-06-19T03:02:58.358Z,15.40
2018-06-19T03:07:42.809Z,15.40
2018-06-19T03:12:27.243Z,15.40
2018-06-19T03:17:11.607Z,15.40
2018-06-19T03:21:55.937Z,15.50
2018-06-19T03:26:40.394Z,15.60
2018-06-19T03:31:25.046Z,15.70
2018-06-19T03:36:09.347Z,16.00
2018-06-19T03:40:53.720Z,16.10
2018-06-19T03:45:38.204Z,16.50
2018-06-19T03:50:23.576Z,17.20
2018-06-19T03:55:08.054Z,17.20
2018-06-19T03:59:52.467Z,17.30
2018-06-19T04:04:36.842Z,17.60
2018-06-19T04:09:21.067Z,18.00
2018-06-19T04:14:05.436Z,17.90
2018-06-19T04:18:49.970Z,17.70
2018-06-19T04:23:34.648Z,17.80
2018-06-19T04:28:18.999Z,17.60
2018-06-19T04:33:03.377Z,17.40
2018-06-19T04:37:47.946Z,17.30
2018-06-19T04:42:32.363Z,17.70
2018-06-19T04:47:16.814Z,18.00
2018-06-19T04:52:02.207Z,18.00
2018-06-19T04:56:46.517Z,18.00
2018-06-19T05:01:30.932Z,18.70
2018-06-19T05:06:15.322Z,19.00
2018-06-19T05:10:59.710Z,19.10
2018-06-19T05:15:44.107Z,19.10
2018-06-19T05:20:28.491Z,19.30
2018-06-19T05:25:12.841Z,19.50
2018-06-19T05:29:57.368Z,19.80
2018-06-19T05:34:41.677Z,19.80
2018-06-19T05:39:26.092Z,19.90
2018-06-19T05:44:10.430Z,19.80
2018-06-19T05:48:54.824Z,20.00
2018-06-19T05:53:39.240Z,20.10
2018-06-19T05:58:23.720Z,20.00
2018-06-19T06:03:08.202Z,20.00
2018-06-19T06:07:52.687Z,20.00
2018-06-19T06:12:37.366Z,20.20
2018-06-19T06:17:22.037Z,20.40
2018-06-19T06:22:06.528Z,20.60
2018-06-19T06:26:51.013Z,21.00
2018-06-19T06:31:35.482Z,21.30
2018-06-19T06:36:20.096Z,21.20
2018-06-19T06:41:04.461Z,21.50
2018-06-19T06:45:48.830Z,21.80
2018-06-19T06:50:33.558Z,22.10
2018-06-19T06:55:18.510Z,22.20
2018-06-19T07:00:02.957Z,22.10
2018-06-19T07:04:47.664Z,21.70
2018-06-19T07:09:32.170Z,22.00
2018-06-19T07:14:16.542Z,22.30
2018-06-19T07:19:01.146Z,22.30
2018-06-19T07:23:45.511Z,22.40
2018-06-19T07:28:30.055Z,22.80
2018-06-19T07:33:14.535Z,23.10
2018-06-19T07:37:59.022Z,24.00
2018-06-19T07:42:43.417Z,24.00
2018-06-19T07:47:27.854Z,24.10
2018-06-19T07:52:12.467Z,23.20
2018-06-19T07:56:56.930Z,22.50
2018-06-19T08:01:41.495Z,21.90
2018-06-19T08:06:25.888Z,21.60
2018-06-19T08:11:10.322Z,21.10
2018-06-19T08:15:54.735Z,20.90
2018-06-19T08:20:39.203Z,21.10
2018-06-19T08:25:23.642Z,21.50
2018-06-19T08:30:08.155Z,22.20
2018-06-19T08:34:52.596Z,22.50
2018-06-19T08:39:37.094Z,23.30
2018-06-19T08:44:21.547Z,23.60
2018-06-19T08:49:05.935Z,23.60
2018-06-19T08:53:50.433Z,23.90
2018-06-19T08:58:35.183Z,24.60
2018-06-19T09:03:19.665Z,25.10
2018-06-19T09:08:04.095Z,25.30
2018-06-19T09:12:48.776Z,25.10
2018-06-19T09:17:33.305Z,25.60
2018-06-19T09:22:17.713Z,25.10
2018-06-19T09:27:02.133Z,26.20
2018-06-19T09:31:46.907Z,26.70
2018-06-19T09:36:31.689Z,25.50
2018-06-19T09:41:16.267Z,24.80
2018-06-19T09:46:00.733Z,25.20
2018-06-19T09:50:45.270Z,25.00
2018-06-19T09:55:29.755Z,25.40
2018-06-19T10:00:18.458Z,25.50
2018-06-19T10:05:02.945Z,24.10
2018-06-19T10:09:47.317Z,23.70
2018-06-19T10:14:31.810Z,23.70
2018-06-19T10:19:16.191Z,24.80
2018-06-19T10:24:00.687Z,25.10
2018-06-19T10:28:45.249Z,24.40
2018-06-19T10:33:29.782Z,24.20
2018-06-19T10:38:14.217Z,25.20
2018-06-19T10:42:58.895Z,25.50
2018-06-19T10:47:43.325Z,25.70
2018-06-19T10:52:27.804Z,25.30
2018-06-19T10:57:12.102Z,25.90
2018-06-19T11:01:56.493Z,26.00
2018-06-19T11:06:40.957Z,26.00
2018-06-19T11:11:25.467Z,26.60
2018-06-19T11:16:09.902Z,27.60
2018-06-19T11:20:54.388Z,28.60
2018-06-19T11:25:38.888Z,28.00
2018-06-19T11:30:23.362Z,27.90
2018-06-19T11:35:07.877Z,27.70
2018-06-19T11:39:52.258Z,26.80
2018-06-19T11:44:36.682Z,26.10
2018-06-19T11:49:21.086Z,26.80
2018-06-19T11:54:05.520Z,27.80
2018-06-19T11:58:51.622Z,28.70
2018-06-19T12:03:36.111Z,28.60
2018-06-19T12:08:20.542Z,29.10
2018-06-19T12:13:04.982Z,28.20
2018-06-19T12:17:49.723Z,26.50
2018-06-19T12:22:34.128Z,25.60
2018-06-19T12:27:18.561Z,25.50
2018-06-19T12:32:03.195Z,25.50
2018-06-19T12:36:47.741Z,25.40
2018-06-19T12:41:39.078Z,25.20
2018-06-19T12:46:23.455Z,24.50
2018-06-19T12:52:15.882Z,23.80
2018-06-19T12:57:00.258Z,23.80
2018-06-19T13:01:44.720Z,24.40
2018-06-19T13:06:35.308Z,25.50
2018-06-19T13:11:19.974Z,25.90
2018-06-19T13:16:05.566Z,26.80
2018-06-19T13:20:50.493Z,26.80
2018-06-19T13:25:34.962Z,26.70
2018-06-19T13:30:30.524Z,26.30
2018-06-19T13:35:14.857Z,26.70
2018-06-19T13:41:12.594Z,27.10
2018-06-19T13:45:57.039Z,28.40
2018-06-19T13:50:42.552Z,29.10
2018-06-19T13:57:39.986Z,28.40
2018-06-19T14:02:24.438Z,27.60
2018-06-19T14:07:09.032Z,27.80
2018-06-19T14:12:11.018Z,27.70
2018-06-19T14:16:55.431Z,27.50
2018-06-19T14:21:39.943Z,27.20
2018-06-19T14:26:24.432Z,27.20
2018-06-19T14:31:08.859Z,27.40
2018-06-19T14:35:53.479Z,27.40
2018-06-19T14:40:37.941Z,27.70
2018-06-19T14:45:22.533Z,28.00
2018-06-19T14:50:07.236Z,28.00
2018-06-19T14:54:51.579Z,27.60
2018-06-19T14:59:35.916Z,27.50
2018-06-19T15:04:20.304Z,27.10
2018-06-19T15:09:07.993Z,27.30
2018-06-19T15:13:52.615Z,27.60
2018-06-19T15:18:37.047Z,27.30
2018-06-19T15:23:21.583Z,27.10
2018-06-19T15:28:06.026Z,27.10
2018-06-19T15:32:50.395Z,27.10
2018-06-19T15:37:34.813Z,27.10
2018-06-19T15:42:19.275Z,26.80
2018-06-19T15:47:03.656Z,26.10
2018-06-19T15:51:48.091Z,25.80
2018-06-19T15:56:33.203Z,25.80
2018-06-19T16:01:17.750Z,25.70
2018-06-19T16:06:02.223Z,25.30
2018-06-19T16:10:47.939Z,25.40
2018-06-19T16:15:32.407Z,25.40
2018-06-19T16:20:16.825Z,25.30
2018-06-19T16:25:01.303Z,25.30
2018-06-19T16:29:45.882Z,25.00
2018-06-19T16:34:30.267Z,24.60
2018-06-19T16:39:14.783Z,24.40
2018-06-19T16:43:59.242Z,24.20
2018-06-19T16:48:43.881Z,24.10
2018-06-19T16:53:28.234Z,24.00
2018-06-19T16:58:12.660Z,24.00
2018-06-19T17:02:57.124Z,23.80
2018-06-19T17:07:42.732Z,23.70
2018-06-19T17:12:27.194Z,23.60
2018-06-19T17:17:11.672Z,23.30
2018-06-19T17:21:56.108Z,23.10
2018-06-19T17:26:40.578Z,23.10
2018-06-19T17:31:25.078Z,23.00
2018-06-19T17:36:09.464Z,22.90
2018-06-19T17:41:02.543Z,22.80
2018-06-19T17:45:47.322Z,22.80
2018-06-19T17:50:31.828Z,22.80
2018-06-19T17:55:18.562Z,23.00
2018-06-19T18:00:04.327Z,22.80
2018-06-19T18:04:48.891Z,22.70
2018-06-19T18:09:33.688Z,22.70
2018-06-19T18:14:18.706Z,22.60
2018-06-19T18:19:03.571Z,22.50
2018-06-19T18:23:48.341Z,22.40
2018-06-19T18:28:33.186Z,22.30
2018-06-19T18:33:20.731Z,22.00
2018-06-19T18:38:07.187Z,22.00
2018-06-19T18:42:53.450Z,21.80
2018-06-19T18:47:44.165Z,21.60
2018-06-19T18:52:29.048Z,21.30
2018-06-19T18:57:14.378Z,21.20
2018-06-19T19:01:59.052Z,21.00
2018-06-19T19:06:43.648Z,20.90
2018-06-19T19:11:28.227Z,20.80
2018-06-19T19:16:17.891Z,20.70
2018-06-19T19:21:02.727Z,20.40
2018-06-19T19:25:49.042Z,20.10
2018-06-19T19:30:34.027Z,19.90
2018-06-19T19:35:19.263Z,19.70
2018-06-19T19:40:06.531Z,19.60
2018-06-19T19:44:53.532Z,19.30
2018-06-19T19:49:38.553Z,19.10
2018-06-19T19:54:24.276Z,18.80
2018-06-19T19:59:10.545Z,18.60
2018-06-19T20:03:55.313Z,18.40
2018-06-19T20:08:39.987Z,18.20
2018-06-19T20:13:24.702Z,18.10
2018-06-19T20:18:10.104Z,18.10
2018-06-19T20:22:54.871Z,18.10
2018-06-19T20:27:39.955Z,18.00
2018-06-19T20:32:24.861Z,17.90
2018-06-19T20:37:09.846Z,17.90
2018-06-19T20:41:54.924Z,17.90
2018-06-19T20:46:40.793Z,17.90
2018-06-19T20:51:27.149Z,17.80
2018-06-19T20:56:12.113Z,17.60
2018-06-19T21:00:57.011Z,17.60
2018-06-19T21:05:41.908Z,17.90
2018-06-19T21:10:26.946Z,18.00
2018-06-19T21:15:11.491Z,18.20
2018-06-19T21:19:56.319Z,18.30
2018-06-19T21:24:40.926Z,18.40
2018-06-19T21:29:25.691Z,18.50
2018-06-19T21:34:10.065Z,18.40
2018-06-19T21:38:54.534Z,18.20
2018-06-19T21:43:39.088Z,18.20
2018-06-19T21:48:23.489Z,18.20
2018-06-19T21:53:08.046Z,18.20
2018-06-19T21:57:52.578Z,18.30
2018-06-19T22:02:36.959Z,18.20
2018-06-19T22:07:21.434Z,18.30
2018-06-19T22:12:06.095Z,18.30
2018-06-19T22:16:50.487Z,18.30
2018-06-19T22:21:34.934Z,18.30
2018-06-19T22:26:19.314Z,18.30
2018-06-19T22:31:03.688Z,18.30
2018-06-19T22:35:48.211Z,18.30
2018-06-19T22:40:32.754Z,18.20
2018-06-19T22:45:17.190Z,18.30
2018-06-19T22:50:01.705Z,18.30
2018-06-19T22:54:46.170Z,18.40
2018-06-19T22:59:30.621Z,18.50
2018-06-19T23:04:15.040Z,18.40
2018-06-19T23:08:59.434Z,18.40
2018-06-19T23:13:44.032Z,18.40
2018-06-19T23:18:28.390Z,18.50
2018-06-19T23:23:13.699Z,18.60
2018-06-19T23:27:58.107Z,18.50
2018-06-19T23:32:42.486Z,18.50
2018-06-19T23:37:26.888Z,18.40
2018-06-19T23:42:11.192Z,18.40
2018-06-19T23:46:56.146Z,18.40
2018-06-19T23:51:40.502Z,18.20
2018-06-19T23:56:24.974Z,18.30
